createdAt,value
2023-05-04T00:01:54.561Z,91.70
2023-05-04T00:06:57.618Z,92.13
2023-05-04T00:12:00.589Z,92.33
2023-05-04T00:17:06.578Z,92.35
2023-05-04T00:22:09.634Z,92.45
2023-05-04T00:27:12.707Z,92.54
2023-05-04T00:32:15.681Z,92.29
2023-05-04T00:37:18.810Z,92.82
2023-05-04T00:42:21.825Z,93.01
2023-05-04T00:47:24.908Z,93.02
2023-05-04T00:52:29.259Z,93.04
2023-05-04T00:57:32.234Z,93.04
2023-05-04T01:02:35.627Z,93.28
2023-05-04T01:07:56.186Z,93.10
2023-05-04T01:13:11.734Z,93.08
2023-05-04T01:18:15.451Z,92.94
2023-05-04T01:23:18.508Z,92.62
2023-05-04T01:28:34.972Z,92.48
2023-05-04T01:33:38.723Z,92.08
2023-05-04T01:38:42.751Z,92.04
2023-05-04T01:43:45.675Z,91.64
2023-05-04T01:48:48.745Z,90.48
2023-05-04T01:53:51.776Z,89.65
2023-05-04T01:58:54.695Z,89.44
2023-05-04T02:03:58.060Z,89.55
2023-05-04T02:09:01.364Z,89.46
2023-05-04T02:14:04.494Z,88.08
2023-05-04T02:19:07.352Z,87.30
2023-05-04T02:24:10.681Z,86.64
2023-05-04T02:29:13.853Z,85.25
2023-05-04T02:34:16.777Z,84.93
2023-05-04T02:39:20.045Z,84.96
2023-05-04T02:44:23.223Z,86.72
2023-05-04T02:49:26.405Z,86.10
2023-05-04T02:54:29.447Z,86.15
2023-05-04T02:59:32.260Z,85.09
2023-05-04T03:04:35.365Z,85.07
2023-05-04T03:09:38.511Z,84.89
2023-05-04T03:14:41.546Z,85.07
2023-05-04T03:19:44.341Z,85.08
2023-05-04T03:24:47.366Z,85.20
2023-05-04T03:29:50.795Z,85.56
2023-05-04T03:34:53.879Z,85.62
2023-05-04T03:39:56.724Z,86.05
2023-05-04T03:45:01.085Z,87.00
2023-05-04T03:50:06.604Z,88.18
2023-05-04T03:55:12.472Z,88.59
2023-05-04T04:00:16.451Z,88.94
2023-05-04T04:05:19.640Z,89.20
2023-05-04T04:10:22.643Z,89.12
2023-05-04T04:15:25.563Z,89.65
2023-05-04T04:20:28.715Z,89.81
2023-05-04T04:25:32.290Z,90.05
2023-05-04T04:30:35.332Z,90.92
2023-05-04T04:35:38.496Z,91.32
2023-05-04T04:40:42.126Z,91.78
2023-05-04T04:45:45.336Z,90.42
2023-05-04T04:50:48.808Z,89.50
2023-05-04T04:55:52.292Z,88.49
2023-05-04T05:00:58.370Z,87.40
2023-05-04T05:06:02.226Z,86.81
2023-05-04T05:11:05.514Z,84.65
2023-05-04T05:16:08.589Z,82.66
2023-05-04T05:21:11.757Z,79.22
2023-05-04T05:26:14.841Z,78.08
2023-05-04T05:31:18.388Z,76.72
2023-05-04T05:36:21.509Z,75.82
2023-05-04T05:41:24.227Z,75.14
2023-05-04T05:46:28.263Z,73.25
2023-05-04T05:51:31.424Z,72.31
2023-05-04T05:56:34.481Z,72.17
2023-05-04T06:01:37.580Z,70.07
2023-05-04T06:06:40.608Z,68.41
2023-05-04T06:11:43.778Z,67.26
2023-05-04T06:16:46.722Z,68.68
2023-05-04T06:21:49.928Z,66.68
2023-05-04T06:26:52.849Z,67.61
2023-05-04T06:31:56.952Z,66.40
2023-05-04T06:37:00.157Z,65.38
2023-05-04T06:42:03.566Z,64.45
2023-05-04T06:47:09.582Z,63.51
2023-05-04T06:52:12.516Z,62.61
2023-05-04T06:57:15.660Z,61.66
2023-05-04T07:02:18.571Z,62.91
2023-05-04T07:07:21.592Z,61.19
2023-05-04T07:12:24.545Z,62.06
2023-05-04T07:17:27.382Z,61.67
2023-05-04T07:22:34.496Z,60.94
2023-05-04T07:27:37.994Z,58.64
2023-05-04T07:32:41.628Z,59.87
2023-05-04T07:37:45.219Z,60.27
2023-05-04T07:42:48.724Z,59.92
2023-05-04T07:47:52.757Z,58.79
2023-05-04T07:52:56.044Z,59.27
2023-05-04T07:57:59.069Z,58.13
2023-05-04T08:03:02.112Z,56.64
2023-05-04T08:08:05.336Z,56.84
2023-05-04T08:13:08.409Z,56.17
2023-05-04T08:18:11.459Z,56.27
2023-05-04T08:23:14.596Z,56.24
2023-05-04T08:28:18.009Z,56.88
2023-05-04T08:33:20.940Z,56.55
2023-05-04T08:38:24.747Z,55.19
2023-05-04T08:43:29.439Z,55.47
2023-05-04T08:48:35.645Z,52.45
2023-05-04T08:53:43.542Z,52.04
2023-05-04T08:58:51.407Z,51.48
2023-05-04T09:03:55.047Z,51.39
2023-05-04T09:08:58.494Z,51.05
2023-05-04T09:14:01.563Z,49.86
2023-05-04T09:19:16.492Z,48.38
2023-05-04T09:24:31.929Z,49.33
2023-05-04T09:29:39.400Z,48.72
2023-05-04T09:34:53.870Z,46.70
2023-05-04T09:39:58.994Z,47.74
2023-05-04T09:45:10.944Z,47.68
2023-05-04T09:50:21.077Z,48.67
2023-05-04T09:55:25.350Z,48.98
2023-05-04T10:00:29.677Z,47.94
2023-05-04T10:05:32.595Z,48.28
2023-05-04T10:10:39.767Z,49.30
2023-05-04T10:16:10.218Z,46.98
2023-05-04T10:21:37.291Z,47.80
2023-05-04T10:27:05.784Z,48.33
2023-05-04T10:32:22.964Z,46.37
2023-05-04T10:37:26.225Z,44.85
2023-05-04T10:42:29.320Z,46.43
2023-05-04T10:47:38.038Z,46.69
2023-05-04T10:52:49.810Z,44.75
2023-05-04T10:57:59.363Z,44.65
2023-05-04T11:03:07.494Z,43.63
2023-05-04T11:08:24.834Z,43.90
2023-05-04T11:13:31.991Z,43.67
2023-05-04T11:18:37.396Z,45.77
2023-05-04T11:23:40.494Z,45.18
2023-05-04T11:28:44.205Z,45.30
2023-05-04T11:33:55.120Z,45.65
2023-05-04T11:38:58.654Z,46.61
2023-05-04T11:44:03.446Z,46.36
2023-05-04T11:49:06.769Z,45.35
2023-05-04T11:54:21.768Z,46.49
2023-05-04T11:59:24.966Z,46.20
2023-05-04T12:04:32.642Z,45.85
2023-05-04T12:09:49.484Z,44.41
2023-05-04T12:14:54.621Z,45.84
2023-05-04T12:19:57.877Z,44.99
2023-05-04T12:25:01.049Z,45.44
2023-05-04T12:30:04.555Z,46.41
2023-05-04T12:35:08.201Z,46.43
2023-05-04T12:40:27.346Z,47.05
2023-05-04T12:45:31.410Z,47.75
2023-05-04T12:50:34.335Z,46.50
2023-05-04T12:55:37.979Z,44.23
2023-05-04T13:00:41.365Z,43.94
2023-05-04T13:05:47.341Z,43.79
2023-05-04T13:10:51.242Z,44.13
2023-05-04T13:15:54.573Z,45.69
2023-05-04T13:20:57.845Z,45.23
2023-05-04T13:26:01.217Z,45.52
2023-05-04T13:31:09.132Z,46.38
2023-05-04T13:36:12.257Z,46.17
2023-05-04T13:41:15.842Z,45.49
2023-05-04T13:46:18.748Z,46.92
2023-05-04T13:51:21.773Z,47.79
2023-05-04T13:56:24.573Z,49.35
2023-05-04T14:01:27.703Z,50.24
2023-05-04T14:06:31.027Z,51.57
2023-05-04T14:11:34.030Z,51.42
2023-05-04T14:16:37.534Z,52.23
2023-05-04T14:21:40.993Z,48.82
2023-05-04T14:26:43.998Z,46.11
2023-05-04T14:31:47.234Z,46.18
2023-05-04T14:36:53.130Z,45.48
2023-05-04T14:41:58.013Z,43.50
2023-05-04T14:47:04.206Z,42.33
2023-05-04T14:52:08.443Z,41.61
2023-05-04T14:57:11.649Z,40.14
2023-05-04T15:02:14.834Z,41.94
2023-05-04T15:07:20.688Z,43.53
2023-05-04T15:12:26.687Z,43.43
2023-05-04T15:17:31.089Z,43.83
2023-05-04T15:22:34.081Z,44.23
2023-05-04T15:27:37.199Z,45.55
2023-05-04T15:32:40.262Z,47.70
2023-05-04T15:37:43.222Z,48.92
2023-05-04T15:42:46.674Z,50.24
2023-05-04T15:47:49.652Z,49.10
2023-05-04T15:52:53.237Z,48.21
2023-05-04T15:57:56.279Z,48.06
2023-05-04T16:03:01.237Z,48.14
2023-05-04T16:08:04.482Z,47.15
2023-05-04T16:13:08.604Z,46.77
2023-05-04T16:18:12.884Z,46.27
2023-05-04T16:23:17.806Z,46.77
2023-05-04T16:28:20.821Z,47.05
2023-05-04T16:33:25.251Z,47.38
2023-05-04T16:38:28.194Z,47.41
2023-05-04T16:43:32.076Z,48.55
2023-05-04T16:48:36.744Z,49.36
2023-05-04T16:53:39.821Z,51.05
2023-05-04T16:58:42.824Z,51.67
2023-05-04T17:03:46.005Z,54.12
2023-05-04T17:08:49.215Z,55.50
2023-05-04T17:13:52.055Z,57.05
2023-05-04T17:18:55.187Z,58.34
2023-05-04T17:23:58.279Z,59.44
2023-05-04T17:29:01.378Z,60.56
2023-05-04T17:34:04.544Z,60.95
2023-05-04T17:39:07.329Z,61.58
2023-05-04T17:44:10.805Z,62.82
2023-05-04T17:49:14.989Z,63.21
2023-05-04T17:54:18.051Z,63.95
2023-05-04T17:59:21.178Z,64.71
2023-05-04T18:04:24.248Z,64.99
2023-05-04T18:09:27.220Z,65.57
2023-05-04T18:14:30.810Z,66.27
2023-05-04T18:19:37.309Z,66.79
2023-05-04T18:24:40.035Z,67.51
2023-05-04T18:29:43.166Z,68.05
2023-05-04T18:34:51.123Z,68.75
2023-05-04T18:39:54.353Z,69.36
2023-05-04T18:44:57.519Z,69.84
2023-05-04T18:50:01.497Z,70.13
2023-05-04T18:55:06.622Z,70.83
2023-05-04T19:00:11.687Z,71.20
2023-05-04T19:05:15.249Z,72.08
2023-05-04T19:10:18.480Z,72.35
2023-05-04T19:15:23.243Z,72.62
2023-05-04T19:20:27.902Z,72.76
2023-05-04T19:25:35.093Z,73.16
2023-05-04T19:30:39.882Z,73.40
2023-05-04T19:35:42.882Z,73.44
2023-05-04T19:40:45.963Z,73.50
2023-05-04T19:45:49.697Z,73.69
2023-05-04T19:50:52.738Z,73.92
2023-05-04T19:55:55.850Z,74.16
2023-05-04T20:00:59.271Z,74.41
2023-05-04T20:06:03.638Z,74.55
2023-05-04T20:11:06.908Z,75.15
2023-05-04T20:16:09.903Z,76.28
2023-05-04T20:21:13.180Z,76.93
2023-05-04T20:26:16.496Z,77.74
2023-05-04T20:31:19.446Z,78.82
2023-05-04T20:36:22.848Z,79.66
2023-05-04T20:41:25.869Z,80.13
2023-05-04T20:46:28.972Z,80.06
2023-05-04T20:51:32.505Z,80.78
2023-05-04T20:56:35.649Z,80.29
2023-05-04T21:01:38.696Z,80.55
2023-05-04T21:06:41.988Z,80.49
2023-05-04T21:11:45.072Z,80.55
2023-05-04T21:16:48.078Z,80.38
2023-05-04T21:21:51.409Z,80.53
2023-05-04T21:26:54.343Z,80.30
2023-05-04T21:31:57.692Z,80.38
2023-05-04T21:37:00.879Z,80.66
2023-05-04T21:42:04.066Z,80.97
2023-05-04T21:47:08.414Z,81.08
2023-05-04T21:52:11.283Z,81.06
2023-05-04T21:57:14.554Z,80.85
2023-05-04T22:02:17.615Z,80.67
2023-05-04T22:07:20.559Z,80.38
2023-05-04T22:12:23.574Z,80.14
2023-05-04T22:17:26.805Z,80.08
2023-05-04T22:22:29.769Z,79.75
2023-05-04T22:27:32.788Z,79.59
2023-05-04T22:32:35.691Z,79.31
2023-05-04T22:37:38.684Z,79.27
2023-05-04T22:42:44.836Z,78.82
2023-05-04T22:47:48.004Z,78.39
2023-05-04T22:52:50.960Z,78.06
2023-05-04T22:57:54.163Z,77.89
2023-05-04T23:02:57.346Z,77.52
2023-05-04T23:08:00.492Z,77.05
2023-05-04T23:13:03.917Z,76.59
2023-05-04T23:18:07.310Z,75.96
2023-05-04T23:23:10.518Z,75.34
2023-05-04T23:28:13.481Z,74.95
2023-05-04T23:33:16.487Z,74.70
2023-05-04T23:38:19.418Z,74.95
2023-05-04T23:43:23.781Z,75.24
2023-05-04T23:48:28.352Z,75.44
2023-05-04T23:53:32.170Z,76.19
2023-05-04T23:58:35.626Z,76.38
